createdAt,value
2019-04-06T00:00:02.303Z,26.30
2019-04-06T00:02:36.603Z,31.13
2019-04-06T00:05:08.314Z,27.93
2019-04-06T00:07:38.584Z,28.83
2019-04-06T00:10:10.477Z,27.63
2019-04-06T00:12:40.840Z,33.10
2019-04-06T00:15:11.400Z,28.50
2019-04-06T00:17:41.793Z,29.37
2019-04-06T00:20:12.089Z,29.30
2019-04-06T00:22:42.334Z,27.67
2019-04-06T00:25:12.626Z,30.77
2019-04-06T00:27:43.336Z,27.67
2019-04-06T00:30:14.185Z,27.53
2019-04-06T00:33:09.618Z,28.63
2019-04-06T00:35:39.838Z,32.37
2019-04-06T00:38:10.105Z,30.90
2019-04-06T00:40:40.905Z,29.87
2019-04-06T00:43:11.175Z,30.10
2019-04-06T00:45:41.433Z,31.33
2019-04-06T00:48:11.715Z,27.30
2019-04-06T00:50:41.990Z,28.33
2019-04-06T00:53:12.223Z,32.53
2019-04-06T00:55:42.569Z,33.47
2019-04-06T00:58:12.863Z,27.97
2019-04-06T01:00:44.202Z,32.93
2019-04-06T01:03:14.482Z,31.33
2019-04-06T01:05:44.763Z,31.53
2019-04-06T01:08:15.059Z,29.40
2019-04-06T01:10:45.309Z,30.97
2019-04-06T01:13:15.575Z,30.40
2019-04-06T01:15:45.865Z,27.80
2019-04-06T01:18:16.155Z,32.27
2019-04-06T01:20:46.515Z,32.07
2019-04-06T01:23:16.753Z,31.40
2019-04-06T01:25:47.053Z,29.67
2019-04-06T01:28:17.299Z,25.80
2019-04-06T01:30:47.641Z,26.37
2019-04-06T01:33:18.028Z,27.30
2019-04-06T01:35:48.212Z,34.60
2019-04-06T01:38:18.491Z,31.20
2019-04-06T01:40:48.743Z,29.53
2019-04-06T01:43:19.207Z,30.40
2019-04-06T01:45:49.447Z,35.20
2019-04-06T01:48:19.942Z,32.70
2019-04-06T01:50:50.266Z,29.87
2019-04-06T01:53:20.681Z,35.80
2019-04-06T01:55:50.941Z,29.67
2019-04-06T01:58:21.439Z,33.00
2019-04-06T02:01:01.843Z,26.73
2019-04-06T02:03:32.327Z,28.63
2019-04-06T02:06:03.176Z,33.57
2019-04-06T02:08:33.698Z,27.27
2019-04-06T02:11:04.053Z,30.77
2019-04-06T02:13:34.297Z,29.97
2019-04-06T02:16:05.107Z,28.77
2019-04-06T02:18:35.314Z,27.97
2019-04-06T02:21:05.590Z,29.13
2019-04-06T02:23:36.222Z,31.63
2019-04-06T02:26:06.461Z,29.90
2019-04-06T02:28:36.611Z,29.07
2019-04-06T02:31:16.722Z,27.80
2019-04-06T02:34:08.292Z,30.30
2019-04-06T02:37:03.892Z,31.43
2019-04-06T02:39:58.364Z,26.40
2019-04-06T02:42:36.980Z,28.73
2019-04-06T02:45:07.980Z,27.43
2019-04-06T02:47:38.249Z,31.00
2019-04-06T02:50:08.699Z,30.67
2019-04-06T02:52:39.367Z,28.37
2019-04-06T02:55:11.882Z,27.60
2019-04-06T02:57:42.916Z,31.60
2019-04-06T03:00:13.555Z,30.43
2019-04-06T03:02:44.348Z,32.73
2019-04-06T03:05:15.096Z,31.60
2019-04-06T03:07:45.423Z,26.70
2019-04-06T03:10:15.681Z,29.53
2019-04-06T03:12:46.035Z,27.97
2019-04-06T03:15:16.587Z,31.40
2019-04-06T03:17:46.899Z,30.60
2019-04-06T03:20:17.160Z,32.60
2019-04-06T03:22:47.826Z,30.73
2019-04-06T03:25:18.129Z,30.30
2019-04-06T03:27:48.898Z,35.07
2019-04-06T03:30:19.139Z,34.50
2019-04-06T03:32:49.504Z,31.43
2019-04-06T03:35:19.771Z,25.83
2019-04-06T03:37:50.106Z,29.57
2019-04-06T03:40:20.383Z,28.87
2019-04-06T03:42:50.659Z,27.30
2019-04-06T03:45:20.944Z,32.70
2019-04-06T03:47:51.236Z,26.33
2019-04-06T03:50:21.552Z,32.47
2019-04-06T03:52:51.853Z,25.13
2019-04-06T03:55:22.451Z,27.93
2019-04-06T03:57:53.036Z,29.00
2019-04-06T04:00:23.812Z,27.53
2019-04-06T04:02:54.257Z,29.60
2019-04-06T04:05:24.895Z,29.73
2019-04-06T04:07:55.598Z,26.97
2019-04-06T04:10:37.989Z,32.20
2019-04-06T04:13:10.079Z,29.30
2019-04-06T04:15:40.430Z,31.50
2019-04-06T04:18:10.706Z,34.83
2019-04-06T04:20:41.357Z,29.30
2019-04-06T04:23:11.830Z,32.63
2019-04-06T04:25:42.247Z,34.80
2019-04-06T04:28:12.942Z,28.07
2019-04-06T04:30:43.336Z,26.60
2019-04-06T04:33:13.567Z,28.20
2019-04-06T04:35:45.175Z,28.17
2019-04-06T04:38:15.455Z,31.43
2019-04-06T04:40:45.670Z,25.53
2019-04-06T04:43:16.002Z,31.33
2019-04-06T04:45:46.655Z,33.83
2019-04-06T04:48:16.898Z,27.00
2019-04-06T04:50:47.407Z,30.77
2019-04-06T04:53:17.640Z,31.07
2019-04-06T04:55:49.394Z,31.40
2019-04-06T04:58:19.655Z,32.87
2019-04-06T05:00:50.185Z,37.60
2019-04-06T05:03:20.478Z,25.93
2019-04-06T05:05:51.209Z,31.37
2019-04-06T05:08:22.677Z,29.83
2019-04-06T05:10:53.266Z,27.40
2019-04-06T05:13:23.515Z,29.10
2019-04-06T05:16:23.737Z,29.50
2019-04-06T05:18:53.932Z,25.67
2019-04-06T05:21:24.439Z,34.53
2019-04-06T05:23:56.193Z,27.83
2019-04-06T05:26:36.799Z,30.97
2019-04-06T05:28:58.827Z,34.93
2019-04-06T05:31:29.131Z,35.00
2019-04-06T05:33:59.688Z,30.20
2019-04-06T05:36:37.127Z,33.90
2019-04-06T05:39:07.471Z,28.43
2019-04-06T05:41:37.730Z,25.97
2019-04-06T05:44:08.025Z,33.47
2019-04-06T05:46:38.319Z,25.77
2019-04-06T05:49:09.175Z,31.37
2019-04-06T05:51:39.428Z,40.30
2019-04-06T05:54:09.977Z,29.17
2019-04-06T05:56:40.136Z,29.87
2019-04-06T05:59:15.760Z,29.60
2019-04-06T06:01:48.367Z,32.13
2019-04-06T06:04:18.209Z,32.47
2019-04-06T06:06:48.798Z,31.80
2019-04-06T06:09:19.235Z,32.07
2019-04-06T06:11:49.526Z,33.33
2019-04-06T06:14:20.551Z,27.67
2019-04-06T06:16:50.845Z,27.00
2019-04-06T06:19:21.233Z,32.10
2019-04-06T06:21:51.503Z,32.03
2019-04-06T06:24:21.783Z,31.97
2019-04-06T06:26:52.234Z,24.67
2019-04-06T06:29:22.702Z,31.30
2019-04-06T06:31:52.940Z,28.27
2019-04-06T06:34:23.296Z,26.17
2019-04-06T06:36:53.566Z,31.50
2019-04-06T06:39:23.858Z,30.80
2019-04-06T06:41:54.122Z,25.43
2019-04-06T06:44:24.575Z,28.53
2019-04-06T06:46:55.126Z,30.40
2019-04-06T06:49:25.496Z,29.93
2019-04-06T06:51:57.130Z,31.80
2019-04-06T06:54:27.573Z,25.13
2019-04-06T06:56:57.818Z,27.83
2019-04-06T06:59:28.615Z,30.63
2019-04-06T07:01:59.352Z,28.07
2019-04-06T07:04:29.782Z,32.33
2019-04-06T07:07:00.388Z,26.60
2019-04-06T07:09:30.915Z,29.67
2019-04-06T07:12:01.508Z,26.43
2019-04-06T07:14:31.817Z,36.70
2019-04-06T07:17:02.687Z,25.03
2019-04-06T07:19:33.136Z,36.30
2019-04-06T07:22:04.125Z,24.93
2019-04-06T07:24:34.882Z,34.07
2019-04-06T07:27:05.584Z,32.63
2019-04-06T07:29:35.978Z,30.50
2019-04-06T07:32:06.648Z,25.10
2019-04-06T07:34:37.445Z,31.53
2019-04-06T07:37:08.076Z,28.37
2019-04-06T07:39:39.138Z,24.93
2019-04-06T07:42:09.936Z,29.13
2019-04-06T07:44:41.025Z,29.17
2019-04-06T07:47:11.967Z,29.10
2019-04-06T07:50:01.977Z,34.67
2019-04-06T07:52:33.693Z,27.97
2019-04-06T07:55:04.163Z,28.90
2019-04-06T07:57:34.584Z,28.13
2019-04-06T08:00:08.871Z,26.23
2019-04-06T08:02:40.649Z,30.50
2019-04-06T08:05:12.260Z,28.97
2019-04-06T08:07:43.333Z,28.77
2019-04-06T08:10:14.230Z,18.57
2019-04-06T08:12:44.703Z,26.80
2019-04-06T08:15:15.437Z,27.77
2019-04-06T08:17:45.857Z,18.13
2019-04-06T08:20:17.098Z,29.83
2019-04-06T08:22:48.097Z,25.23
2019-04-06T08:25:18.561Z,21.77
2019-04-06T08:27:48.881Z,20.90
2019-04-06T08:30:19.457Z,22.63
2019-04-06T08:32:49.731Z,26.23
2019-04-06T08:35:26.188Z,20.23
2019-04-06T08:37:51.949Z,22.93
2019-04-06T08:40:22.287Z,21.90
2019-04-06T08:42:52.566Z,21.50
2019-04-06T08:45:23.129Z,24.63
2019-04-06T08:47:53.786Z,29.30
2019-04-06T08:50:24.079Z,20.77
2019-04-06T08:52:54.491Z,24.87
2019-04-06T08:55:24.782Z,23.27
2019-04-06T08:57:55.164Z,24.10
2019-04-06T09:00:25.524Z,23.23
2019-04-06T09:02:56.046Z,20.03
2019-04-06T09:05:27.483Z,25.47
2019-04-06T09:07:58.256Z,21.17
2019-04-06T09:10:28.566Z,19.60
2019-04-06T09:12:59.567Z,22.37
2019-04-06T09:15:30.006Z,23.63
2019-04-06T09:18:00.601Z,23.73
2019-04-06T09:20:30.880Z,26.80
2019-04-06T09:23:01.152Z,24.77
2019-04-06T09:25:31.974Z,21.87
2019-04-06T09:28:03.410Z,20.40
2019-04-06T09:30:33.849Z,18.63
2019-04-06T09:33:04.235Z,20.53
2019-04-06T09:35:34.643Z,21.67
2019-04-06T09:38:04.916Z,20.47
2019-04-06T09:40:35.214Z,24.17
2019-04-06T09:43:06.807Z,24.43
2019-04-06T09:45:56.329Z,20.93
2019-04-06T09:48:56.035Z,20.93
2019-04-06T09:51:45.911Z,22.53
2019-04-06T09:54:30.978Z,24.93
2019-04-06T09:57:38.410Z,20.93
2019-04-06T10:00:26.962Z,24.20
2019-04-06T10:03:28.840Z,18.93
2019-04-06T10:06:15.875Z,21.83
2019-04-06T10:09:04.013Z,21.97
2019-04-06T10:11:46.458Z,19.67
2019-04-06T10:14:34.542Z,16.80
2019-04-06T10:17:30.033Z,19.60
2019-04-06T10:20:18.054Z,17.67
2019-04-06T10:23:12.447Z,21.27
2019-04-06T10:25:54.349Z,24.43
2019-04-06T10:28:36.524Z,23.60
2019-04-06T10:31:26.241Z,22.93
2019-04-06T10:34:22.542Z,20.03
2019-04-06T10:37:06.752Z,19.17
2019-04-06T10:39:41.188Z,19.53
2019-04-06T10:42:29.267Z,20.37
2019-04-06T10:45:09.020Z,17.43
2019-04-06T10:48:07.672Z,17.17
2019-04-06T10:50:52.200Z,20.57
2019-04-06T10:53:41.802Z,24.90
2019-04-06T10:56:29.974Z,21.83
2019-04-06T10:59:09.846Z,25.77
2019-04-06T11:01:53.578Z,20.57
2019-04-06T11:04:35.214Z,20.00
2019-04-06T11:07:23.696Z,17.57
2019-04-06T11:10:16.006Z,18.63
2019-04-06T11:13:05.256Z,19.30
2019-04-06T11:15:58.064Z,21.33
2019-04-06T11:18:47.899Z,22.73
2019-04-06T11:21:26.106Z,25.60
2019-04-06T11:24:18.323Z,18.80
2019-04-06T11:26:55.783Z,18.90
2019-04-06T11:29:54.172Z,16.70
2019-04-06T11:32:36.581Z,17.23
2019-04-06T11:35:29.260Z,24.77
2019-04-06T11:38:21.401Z,24.57
2019-04-06T11:41:14.408Z,17.97
2019-04-06T11:44:09.517Z,20.23
2019-04-06T11:47:08.182Z,20.50
2019-04-06T11:50:00.553Z,16.40
2019-04-06T11:52:40.664Z,17.70
2019-04-06T11:55:22.819Z,18.67
2019-04-06T11:58:18.814Z,23.40
2019-04-06T12:01:04.393Z,22.53
2019-04-06T12:04:06.267Z,19.23
2019-04-06T12:06:44.410Z,23.50
2019-04-06T12:09:40.471Z,17.83
2019-04-06T12:12:28.485Z,22.87
2019-04-06T12:15:20.920Z,16.67
2019-04-06T12:18:02.340Z,19.90
2019-04-06T12:20:51.617Z,18.63
2019-04-06T12:23:47.080Z,21.70
2019-04-06T12:26:25.318Z,16.07
2019-04-06T12:29:21.663Z,20.77
2019-04-06T12:32:14.363Z,16.93
2019-04-06T12:34:56.398Z,20.30
2019-04-06T12:37:41.786Z,16.20
2019-04-06T12:40:34.226Z,17.77
2019-04-06T12:43:11.888Z,16.63
2019-04-06T12:46:07.465Z,18.17
2019-04-06T12:48:53.521Z,16.93
2019-04-06T12:51:41.550Z,18.13
2019-04-06T12:54:23.864Z,19.50
2019-04-06T12:57:19.394Z,16.20
2019-04-06T13:00:14.547Z,18.07
2019-04-06T13:03:02.484Z,16.47
2019-04-06T13:05:43.353Z,18.30
2019-04-06T13:08:45.672Z,17.70
2019-04-06T13:11:29.840Z,18.20
2019-04-06T13:14:19.317Z,16.80
2019-04-06T13:17:24.526Z,15.33
2019-04-06T13:20:10.415Z,20.07
2019-04-06T13:22:52.025Z,24.97
2019-04-06T13:25:56.591Z,19.83
2019-04-06T13:28:44.594Z,14.57
2019-04-06T13:31:21.082Z,19.00
2019-04-06T13:34:10.815Z,17.03
2019-04-06T13:36:56.968Z,22.80
2019-04-06T13:39:49.035Z,15.63
2019-04-06T13:42:41.327Z,14.43
2019-04-06T13:45:29.172Z,23.03
2019-04-06T13:48:14.827Z,28.97
2019-04-06T13:51:02.193Z,20.23
2019-04-06T13:53:50.336Z,17.80
2019-04-06T13:56:40.777Z,14.13
2019-04-06T13:59:33.401Z,14.77
2019-04-06T14:02:22.590Z,23.97
2019-04-06T14:05:02.223Z,18.93
2019-04-06T14:07:50.152Z,14.17
2019-04-06T14:10:33.560Z,21.33
2019-04-06T14:13:22.438Z,17.17
2019-04-06T14:16:14.660Z,16.17
2019-04-06T14:19:19.505Z,16.67
2019-04-06T14:22:07.420Z,29.00
2019-04-06T14:25:14.823Z,15.43
2019-04-06T14:28:02.766Z,20.80
2019-04-06T14:30:58.791Z,21.07
2019-04-06T14:33:48.563Z,17.30
2019-04-06T14:36:30.017Z,18.17
2019-04-06T14:39:18.548Z,24.13
2019-04-06T14:42:09.686Z,21.60
2019-04-06T14:44:57.687Z,23.97
2019-04-06T14:47:46.058Z,16.47
2019-04-06T14:50:44.102Z,18.47
2019-04-06T14:53:23.547Z,21.07
2019-04-06T14:56:20.082Z,20.70
2019-04-06T14:59:01.699Z,18.70
2019-04-06T15:01:57.755Z,19.93
2019-04-06T15:04:41.180Z,17.17
2019-04-06T15:07:33.586Z,20.33
2019-04-06T15:10:29.748Z,18.27
2019-04-06T15:13:27.978Z,17.70
2019-04-06T15:16:10.428Z,19.83
2019-04-06T15:19:08.796Z,20.10
2019-04-06T15:21:49.888Z,16.77
2019-04-06T15:24:33.014Z,19.90
2019-04-06T15:27:25.005Z,16.63
2019-04-06T15:30:13.385Z,18.83
2019-04-06T15:32:59.909Z,24.10
2019-04-06T15:35:43.348Z,15.50
2019-04-06T15:38:20.662Z,23.43
2019-04-06T15:41:19.181Z,19.33
2019-04-06T15:43:59.543Z,15.83
2019-04-06T15:46:40.239Z,14.27
2019-04-06T15:49:26.873Z,20.40
2019-04-06T15:52:16.910Z,19.37
2019-04-06T15:54:57.019Z,16.57
2019-04-06T15:58:04.357Z,20.27
2019-04-06T16:01:01.169Z,22.03
2019-04-06T16:03:41.526Z,16.47
2019-04-06T16:06:30.093Z,18.83
2019-04-06T16:09:18.491Z,26.57
2019-04-06T16:12:22.886Z,16.43
2019-04-06T16:15:27.649Z,20.07
2019-04-06T16:18:06.057Z,16.60
2019-04-06T16:21:03.169Z,19.50
2019-04-06T16:23:44.060Z,17.17
2019-04-06T16:26:29.155Z,17.90
2019-04-06T16:29:21.534Z,23.17
2019-04-06T16:32:19.683Z,19.80
2019-04-06T16:35:12.647Z,19.13
2019-04-06T16:38:07.151Z,18.90
2019-04-06T16:40:55.809Z,17.47
2019-04-06T16:43:48.409Z,23.37
2019-04-06T16:46:32.236Z,23.93
2019-04-06T16:49:16.817Z,22.03
2019-04-06T16:52:04.651Z,23.20
2019-04-06T16:54:43.757Z,20.47
2019-04-06T16:57:33.071Z,20.03
2019-04-06T17:00:34.491Z,24.47
2019-04-06T17:03:29.662Z,26.80
2019-04-06T17:06:07.836Z,22.30
2019-04-06T17:08:55.670Z,22.67
2019-04-06T17:11:44.174Z,24.77
2019-04-06T17:14:32.561Z,22.67
2019-04-06T17:17:31.410Z,22.13
2019-04-06T17:20:28.929Z,26.07
2019-04-06T17:23:06.109Z,25.73
2019-04-06T17:25:58.046Z,23.90
2019-04-06T17:28:46.836Z,25.20
2019-04-06T17:31:40.273Z,30.23
2019-04-06T17:34:34.892Z,29.43
2019-04-06T17:37:19.507Z,25.00
2019-04-06T17:40:07.993Z,24.80
2019-04-06T17:43:09.831Z,30.57
2019-04-06T17:45:50.201Z,25.67
2019-04-06T17:48:38.775Z,27.37
2019-04-06T17:51:34.502Z,28.40
2019-04-06T17:54:24.354Z,32.67
2019-04-06T17:57:16.899Z,25.97
2019-04-06T18:00:06.251Z,26.27
2019-04-06T18:03:05.091Z,30.23
2019-04-06T18:05:45.135Z,31.97
2019-04-06T18:08:34.754Z,29.33
2019-04-06T18:11:16.182Z,26.93
2019-04-06T18:13:51.008Z,33.93
2019-04-06T18:16:24.232Z,32.73
2019-04-06T18:18:54.459Z,33.67
2019-04-06T18:21:25.791Z,35.30
2019-04-06T18:23:56.108Z,34.17
2019-04-06T18:26:26.421Z,54.37
2019-04-06T18:28:56.765Z,41.40
2019-04-06T18:31:41.802Z,36.63
2019-04-06T18:34:12.449Z,39.23
2019-04-06T18:37:05.657Z,36.23
2019-04-06T18:39:36.083Z,44.40
2019-04-06T18:42:07.461Z,34.47
2019-04-06T18:44:37.940Z,35.37
2019-04-06T18:47:08.606Z,38.43
2019-04-06T18:49:39.078Z,38.60
2019-04-06T18:52:09.377Z,34.33
2019-04-06T18:54:40.249Z,33.30
2019-04-06T18:57:11.601Z,33.73
2019-04-06T18:59:42.525Z,37.03
2019-04-06T19:02:13.112Z,39.27
2019-04-06T19:04:43.992Z,29.80
2019-04-06T19:07:15.745Z,41.13
2019-04-06T19:09:46.364Z,33.33
2019-04-06T19:12:18.550Z,41.13
2019-04-06T19:14:49.031Z,40.97
2019-04-06T19:17:19.332Z,36.63
2019-04-06T19:19:49.983Z,43.40
2019-04-06T19:22:20.914Z,48.07
2019-04-06T19:24:51.272Z,40.57
2019-04-06T19:27:22.938Z,42.67
2019-04-06T19:29:53.345Z,36.47
2019-04-06T19:32:23.840Z,42.33
2019-04-06T19:34:54.167Z,36.57
2019-04-06T19:37:24.841Z,38.57
2019-04-06T19:39:55.814Z,38.67
2019-04-06T19:42:26.822Z,39.20
2019-04-06T19:44:57.142Z,40.23
2019-04-06T19:47:28.382Z,53.57
2019-04-06T19:49:58.704Z,39.93
2019-04-06T19:52:28.980Z,42.10
2019-04-06T19:54:59.850Z,39.23
2019-04-06T19:57:30.735Z,42.50
2019-04-06T20:00:01.141Z,43.87
2019-04-06T20:02:32.409Z,37.03
2019-04-06T20:05:03.717Z,42.40
2019-04-06T20:07:38.079Z,45.93
2019-04-06T20:10:09.677Z,51.73
2019-04-06T20:12:39.976Z,50.57
2019-04-06T20:15:10.868Z,42.10
2019-04-06T20:17:41.163Z,49.80
2019-04-06T20:20:13.597Z,46.87
2019-04-06T20:22:44.454Z,52.17
2019-04-06T20:25:15.360Z,52.00
2019-04-06T20:27:46.365Z,51.97
2019-04-06T20:30:17.476Z,52.53
2019-04-06T20:32:48.423Z,53.43
2019-04-06T20:35:18.992Z,53.03
2019-04-06T20:37:49.346Z,57.00
2019-04-06T20:40:20.098Z,56.40
2019-04-06T20:42:50.574Z,51.30
2019-04-06T20:45:20.954Z,55.07
2019-04-06T20:47:52.441Z,52.57
2019-04-06T20:50:22.704Z,52.10
2019-04-06T20:52:53.397Z,58.03
2019-04-06T20:55:24.320Z,53.57
2019-04-06T20:57:55.049Z,53.20
2019-04-06T21:00:25.622Z,52.93
2019-04-06T21:02:56.454Z,56.90
2019-04-06T21:05:26.950Z,57.97
2019-04-06T21:07:58.667Z,50.43
2019-04-06T21:10:29.843Z,61.70
2019-04-06T21:13:00.369Z,53.10
2019-04-06T21:15:30.796Z,50.70
2019-04-06T21:18:01.304Z,57.13
2019-04-06T21:20:31.646Z,51.37
2019-04-06T21:23:02.818Z,58.63
2019-04-06T21:25:33.337Z,56.17
2019-04-06T21:28:04.375Z,54.47
2019-04-06T21:30:34.725Z,56.17
2019-04-06T21:33:05.366Z,56.30
2019-04-06T21:35:35.673Z,55.50
2019-04-06T21:38:06.597Z,57.73
2019-04-06T21:40:37.321Z,54.10
2019-04-06T21:43:07.858Z,55.50
2019-04-06T21:45:38.688Z,57.57
2019-04-06T21:48:09.736Z,54.20
2019-04-06T21:50:40.186Z,53.10
2019-04-06T21:53:11.495Z,55.33
2019-04-06T21:55:42.494Z,58.17
2019-04-06T21:58:13.142Z,50.03
2019-04-06T22:00:54.593Z,56.57
2019-04-06T22:03:26.207Z,52.73
2019-04-06T22:05:56.772Z,60.87
2019-04-06T22:08:28.163Z,56.00
2019-04-06T22:10:58.417Z,54.80
2019-04-06T22:13:28.733Z,51.33
2019-04-06T22:15:58.987Z,59.67
2019-04-06T22:18:29.462Z,55.10
2019-04-06T22:20:59.671Z,58.03
2019-04-06T22:23:39.867Z,55.77
2019-04-06T22:26:01.824Z,58.60
2019-04-06T22:28:32.540Z,59.63
2019-04-06T22:31:04.427Z,53.30
2019-04-06T22:33:35.437Z,55.73
2019-04-06T22:36:06.536Z,48.57
2019-04-06T22:38:37.696Z,56.60
2019-04-06T22:41:07.970Z,60.70
2019-04-06T22:43:39.966Z,55.00
2019-04-06T22:46:12.275Z,50.40
2019-04-06T22:48:42.581Z,51.60
2019-04-06T22:51:13.821Z,48.73
2019-04-06T22:53:44.259Z,51.80
2019-04-06T22:56:18.097Z,49.63
2019-04-06T22:58:48.356Z,47.47
2019-04-06T23:01:19.773Z,50.67
2019-04-06T23:04:27.491Z,55.80
2019-04-06T23:07:01.958Z,53.33
2019-04-06T23:09:32.500Z,52.53
2019-04-06T23:12:02.850Z,47.90
2019-04-06T23:14:33.156Z,46.43
2019-04-06T23:17:05.306Z,47.77
2019-04-06T23:19:37.549Z,48.93
2019-04-06T23:22:08.101Z,49.13
2019-04-06T23:24:38.624Z,54.30
2019-04-06T23:27:09.273Z,52.43
2019-04-06T23:29:39.584Z,43.50
2019-04-06T23:32:10.327Z,44.20
2019-04-06T23:34:40.796Z,45.43
2019-04-06T23:37:11.666Z,52.93
2019-04-06T23:39:42.256Z,47.70
2019-04-06T23:42:13.755Z,45.00
2019-04-06T23:44:44.259Z,44.77
2019-04-06T23:47:14.729Z,51.67
2019-04-06T23:49:46.197Z,42.17
2019-04-06T23:52:17.103Z,49.10
2019-04-06T23:54:47.811Z,46.93
2019-04-06T23:57:18.687Z,43.90
2019-04-06T23:59:49.918Z,44.90
